createdAt,value
2023-05-23T00:00:45.540Z,10.20
2023-05-23T00:03:16.373Z,11.10
2023-05-23T00:05:44.646Z,9.43
2023-05-23T00:08:12.611Z,8.90
2023-05-23T00:10:40.647Z,9.47
2023-05-23T00:13:12.406Z,9.63
2023-05-23T00:15:41.672Z,9.30
2023-05-23T00:18:11.091Z,11.43
2023-05-23T00:20:40.774Z,10.87
2023-05-23T00:23:09.888Z,8.95
2023-05-23T00:25:38.758Z,9.87
2023-05-23T00:28:07.095Z,9.50
2023-05-23T00:30:36.657Z,10.10
2023-05-23T00:33:05.014Z,11.17
2023-05-23T00:35:33.188Z,11.03
2023-05-23T00:38:02.254Z,10.23
2023-05-23T00:40:30.304Z,11.10
2023-05-23T00:42:58.364Z,11.47
2023-05-23T00:45:26.369Z,10.70
2023-05-23T00:47:56.551Z,10.95
2023-05-23T00:50:25.024Z,9.53
2023-05-23T00:52:53.187Z,10.10
2023-05-23T00:55:21.338Z,9.90
2023-05-23T00:57:49.489Z,9.90
2023-05-23T01:00:19.966Z,10.53
2023-05-23T01:02:51.216Z,10.93
2023-05-23T01:05:22.595Z,10.20
2023-05-23T01:07:51.716Z,10.20
2023-05-23T01:10:24.471Z,10.07
2023-05-23T01:13:03.182Z,9.53
2023-05-23T01:15:38.284Z,8.98
2023-05-23T01:18:12.268Z,9.43
2023-05-23T01:20:46.176Z,9.90
2023-05-23T01:23:52.344Z,10.53
2023-05-23T01:26:36.023Z,9.33
2023-05-23T01:29:11.564Z,9.18
2023-05-23T01:31:45.159Z,9.00
2023-05-23T01:34:14.700Z,10.30
2023-05-23T01:36:44.444Z,9.90
2023-05-23T01:39:13.052Z,9.90
2023-05-23T01:41:41.066Z,10.20
2023-05-23T01:44:10.576Z,10.30
2023-05-23T01:46:39.900Z,9.43
2023-05-23T01:49:12.719Z,9.90
2023-05-23T01:51:41.069Z,12.07
2023-05-23T01:54:09.469Z,9.73
2023-05-23T01:56:37.509Z,10.30
2023-05-23T01:59:05.738Z,9.23
2023-05-23T02:01:37.150Z,8.37
2023-05-23T02:04:05.344Z,9.47
2023-05-23T02:06:33.339Z,8.90
2023-05-23T02:09:01.493Z,9.20
2023-05-23T02:11:29.480Z,10.03
2023-05-23T02:13:57.457Z,9.17
2023-05-23T02:16:26.205Z,9.80
2023-05-23T02:18:56.269Z,9.30
2023-05-23T02:21:24.483Z,10.80
2023-05-23T02:23:52.498Z,9.00
2023-05-23T02:26:20.654Z,10.87
2023-05-23T02:28:48.658Z,9.20
2023-05-23T02:31:17.320Z,12.27
2023-05-23T02:33:45.543Z,11.37
2023-05-23T02:36:15.000Z,11.27
2023-05-23T02:38:42.992Z,9.77
2023-05-23T02:41:11.126Z,9.90
2023-05-23T02:43:39.267Z,9.10
2023-05-23T02:46:07.350Z,8.23
2023-05-23T02:48:35.337Z,9.47
2023-05-23T02:51:03.500Z,10.20
2023-05-23T02:53:33.066Z,10.05
2023-05-23T02:56:01.076Z,11.10
2023-05-23T02:58:29.894Z,9.90
2023-05-23T03:00:58.064Z,9.60
2023-05-23T03:03:28.763Z,11.20
2023-05-23T03:05:57.570Z,9.87
2023-05-23T03:08:25.781Z,8.40
2023-05-23T03:10:55.117Z,9.63
2023-05-23T03:13:23.450Z,11.00
2023-05-23T03:15:54.588Z,13.00
2023-05-23T03:18:22.618Z,9.80
2023-05-23T03:20:50.617Z,9.43
2023-05-23T03:23:18.609Z,10.13
2023-05-23T03:25:46.744Z,9.73
2023-05-23T03:28:16.090Z,9.20
2023-05-23T03:30:44.150Z,9.63
2023-05-23T03:33:12.217Z,7.93
2023-05-23T03:35:40.393Z,9.63
2023-05-23T03:38:08.675Z,8.97
2023-05-23T03:40:36.710Z,8.40
2023-05-23T03:43:06.162Z,9.37
2023-05-23T03:45:35.815Z,9.37
2023-05-23T03:48:04.387Z,7.90
2023-05-23T03:50:32.507Z,8.43
2023-05-23T03:53:00.557Z,9.43
2023-05-23T03:55:31.852Z,8.53
2023-05-23T03:58:00.210Z,9.30
2023-05-23T04:00:28.378Z,9.60
2023-05-23T04:02:58.026Z,8.27
2023-05-23T04:05:26.290Z,7.70
2023-05-23T04:07:54.264Z,9.63
2023-05-23T04:10:22.618Z,9.07
2023-05-23T04:12:51.551Z,8.57
2023-05-23T04:15:21.454Z,9.50
2023-05-23T04:17:49.579Z,10.70
2023-05-23T04:20:19.195Z,11.90
2023-05-23T04:22:47.395Z,10.83
2023-05-23T04:25:15.347Z,12.73
2023-05-23T04:27:43.454Z,10.20
2023-05-23T04:30:12.272Z,11.50
2023-05-23T04:32:40.885Z,10.93
2023-05-23T04:35:14.190Z,11.70
2023-05-23T04:37:45.531Z,12.10
2023-05-23T04:40:14.515Z,12.37
2023-05-23T04:42:44.526Z,11.47
2023-05-23T04:45:12.800Z,12.00
2023-05-23T04:47:41.994Z,12.77
2023-05-23T04:50:10.945Z,12.30
2023-05-23T04:52:38.932Z,12.73
2023-05-23T04:55:09.585Z,11.50
2023-05-23T04:57:37.871Z,11.23
2023-05-23T05:00:10.412Z,11.20
2023-05-23T05:02:38.844Z,11.83
2023-05-23T05:05:07.798Z,12.00
2023-05-23T05:07:37.013Z,12.27
2023-05-23T05:10:05.574Z,12.10
2023-05-23T05:12:35.410Z,12.93
2023-05-23T05:15:04.832Z,14.20
2023-05-23T05:17:36.935Z,12.23
2023-05-23T05:20:08.477Z,13.33
2023-05-23T05:22:36.978Z,13.23
2023-05-23T05:25:07.269Z,12.80
2023-05-23T05:27:38.035Z,11.73
2023-05-23T05:30:07.629Z,10.07
2023-05-23T05:32:35.873Z,10.23
2023-05-23T05:35:04.602Z,10.83
2023-05-23T05:37:32.610Z,9.87
2023-05-23T05:40:06.223Z,10.20
2023-05-23T05:42:34.269Z,10.57
2023-05-23T05:45:03.786Z,9.40
2023-05-23T05:47:31.806Z,9.20
2023-05-23T05:49:59.796Z,9.23
2023-05-23T05:52:27.804Z,8.87
2023-05-23T05:54:57.668Z,8.80
2023-05-23T05:57:25.704Z,8.43
2023-05-23T05:59:53.735Z,7.07
2023-05-23T06:02:23.191Z,7.33
2023-05-23T06:04:51.293Z,7.10
2023-05-23T06:07:19.399Z,7.00
2023-05-23T06:09:47.388Z,7.32
2023-05-23T06:12:15.611Z,7.50
2023-05-23T06:14:43.806Z,7.63
2023-05-23T06:17:12.091Z,6.80
2023-05-23T06:19:41.624Z,8.23
2023-05-23T06:22:09.704Z,8.40
2023-05-23T06:24:37.692Z,7.40
2023-05-23T06:27:06.038Z,7.27
2023-05-23T06:29:35.783Z,8.10
2023-05-23T06:32:04.036Z,9.05
2023-05-23T06:34:32.069Z,7.50
2023-05-23T06:37:01.444Z,8.17
2023-05-23T06:39:29.646Z,8.97
2023-05-23T06:41:57.717Z,6.80
2023-05-23T06:44:25.846Z,8.73
2023-05-23T06:46:57.411Z,8.00
2023-05-23T06:49:25.823Z,7.60
2023-05-23T06:51:54.013Z,7.30
2023-05-23T06:54:23.748Z,7.20
2023-05-23T06:56:51.789Z,8.10
2023-05-23T06:59:20.582Z,8.27
2023-05-23T07:01:49.216Z,8.43
2023-05-23T07:04:17.257Z,8.53
2023-05-23T07:06:45.318Z,7.20
2023-05-23T07:09:13.620Z,6.97
2023-05-23T07:11:43.029Z,8.27
2023-05-23T07:14:11.086Z,7.30
2023-05-23T07:16:39.091Z,8.17
2023-05-23T07:19:07.190Z,7.07
2023-05-23T07:21:36.073Z,7.87
2023-05-23T07:24:04.134Z,7.30
2023-05-23T07:26:32.120Z,6.53
2023-05-23T07:29:01.604Z,8.50
2023-05-23T07:31:29.787Z,7.27
2023-05-23T07:33:57.822Z,6.97
2023-05-23T07:36:27.515Z,8.60
2023-05-23T07:38:55.579Z,6.97
2023-05-23T07:41:23.588Z,8.57
2023-05-23T07:43:52.452Z,7.65
2023-05-23T07:46:22.935Z,8.53
2023-05-23T07:48:51.035Z,8.73
2023-05-23T07:51:21.370Z,6.97
2023-05-23T07:53:49.545Z,8.77
2023-05-23T07:56:17.756Z,9.70
2023-05-23T07:58:45.794Z,8.50
2023-05-23T08:01:13.934Z,7.50
2023-05-23T08:03:43.512Z,8.60
2023-05-23T08:06:11.503Z,7.43
2023-05-23T08:08:39.704Z,7.60
2023-05-23T08:11:07.918Z,7.60
2023-05-23T08:13:35.932Z,7.53
2023-05-23T08:16:04.081Z,7.20
2023-05-23T08:18:32.147Z,6.87
2023-05-23T08:21:03.094Z,6.93
2023-05-23T08:23:31.081Z,6.60
2023-05-23T08:25:59.137Z,7.17
2023-05-23T08:28:27.264Z,7.80
2023-05-23T08:30:58.336Z,7.10
2023-05-23T08:33:26.334Z,6.60
2023-05-23T08:35:54.347Z,7.60
2023-05-23T08:38:24.122Z,7.80
2023-05-23T08:40:53.102Z,6.97
2023-05-23T08:43:21.345Z,7.65
2023-05-23T08:45:52.454Z,7.87
2023-05-23T08:48:21.343Z,7.70
2023-05-23T08:50:50.483Z,8.07
2023-05-23T08:53:20.418Z,8.67
2023-05-23T08:55:51.273Z,8.80
2023-05-23T08:58:21.106Z,8.80
2023-05-23T09:00:50.120Z,9.43
2023-05-23T09:03:19.812Z,9.67
2023-05-23T09:05:48.452Z,8.38
2023-05-23T09:08:16.957Z,8.97
2023-05-23T09:10:45.068Z,8.30
2023-05-23T09:13:15.368Z,8.50
2023-05-23T09:15:59.916Z,8.70
2023-05-23T09:18:28.270Z,9.30
2023-05-23T09:20:56.488Z,9.23
2023-05-23T09:23:24.529Z,8.53
2023-05-23T09:25:52.560Z,8.10
2023-05-23T09:28:22.076Z,7.90
2023-05-23T09:30:51.183Z,8.07
2023-05-23T09:33:19.247Z,8.97
2023-05-23T09:35:47.402Z,9.10
2023-05-23T09:38:15.517Z,8.63
2023-05-23T09:40:46.762Z,9.13
2023-05-23T09:43:19.033Z,8.63
2023-05-23T09:45:48.383Z,8.83
2023-05-23T09:48:17.362Z,8.00
2023-05-23T09:50:51.335Z,8.57
2023-05-23T09:53:21.693Z,9.23
2023-05-23T09:55:52.511Z,8.60
2023-05-23T09:58:21.812Z,9.20
2023-05-23T10:00:53.027Z,9.20
2023-05-23T10:03:28.290Z,7.63
2023-05-23T10:06:01.378Z,8.83
2023-05-23T10:08:35.894Z,8.30
2023-05-23T10:11:33.912Z,8.83
2023-05-23T10:14:03.522Z,8.93
2023-05-23T10:16:41.688Z,8.90
2023-05-23T10:19:19.678Z,8.77
2023-05-23T10:21:52.274Z,7.50
2023-05-23T10:24:21.563Z,8.67
2023-05-23T10:26:49.809Z,7.20
2023-05-23T10:29:17.847Z,7.95
2023-05-23T10:31:47.854Z,7.90
2023-05-23T10:34:24.473Z,9.27
2023-05-23T10:37:00.557Z,8.30
2023-05-23T10:39:50.981Z,7.37
2023-05-23T10:42:28.680Z,7.20
2023-05-23T10:45:15.899Z,7.23
2023-05-23T10:47:45.354Z,8.20
2023-05-23T10:50:18.245Z,8.37
2023-05-23T10:52:46.386Z,8.87
2023-05-23T10:55:15.556Z,8.13
2023-05-23T10:57:43.989Z,8.83
2023-05-23T11:00:16.912Z,8.17
2023-05-23T11:03:01.861Z,8.60
2023-05-23T11:05:32.067Z,9.30
2023-05-23T11:08:11.261Z,9.23
2023-05-23T11:10:56.131Z,8.63
2023-05-23T11:13:24.786Z,9.40
2023-05-23T11:15:53.232Z,8.30
2023-05-23T11:18:25.027Z,8.30
2023-05-23T11:20:54.959Z,9.07
2023-05-23T11:23:23.929Z,8.67
2023-05-23T11:25:53.831Z,9.17
2023-05-23T11:28:22.153Z,9.45
2023-05-23T11:30:51.078Z,8.50
2023-05-23T11:33:20.780Z,9.20
2023-05-23T11:35:51.720Z,8.53
2023-05-23T11:38:20.634Z,9.53
2023-05-23T11:40:48.942Z,8.50
2023-05-23T11:43:19.537Z,10.50
2023-05-23T11:45:50.750Z,10.17
2023-05-23T11:48:19.123Z,9.93
2023-05-23T11:50:50.711Z,9.87
2023-05-23T11:53:21.526Z,11.07
2023-05-23T11:55:52.968Z,10.88
2023-05-23T11:58:21.895Z,11.40
2023-05-23T12:00:49.934Z,11.85
2023-05-23T12:03:18.311Z,11.73
2023-05-23T12:05:46.709Z,11.40
2023-05-23T12:08:16.250Z,13.37
2023-05-23T12:10:52.629Z,12.50
2023-05-23T12:13:20.982Z,12.60
2023-05-23T12:15:50.801Z,10.80
2023-05-23T12:18:21.486Z,10.97
2023-05-23T12:20:50.517Z,10.33
2023-05-23T12:23:23.328Z,9.90
2023-05-23T12:25:52.891Z,10.00
2023-05-23T12:28:21.194Z,8.67
2023-05-23T12:30:49.650Z,9.00
2023-05-23T12:33:20.745Z,7.03
2023-05-23T12:35:48.866Z,6.90
2023-05-23T12:38:17.971Z,8.40
2023-05-23T12:40:47.354Z,8.60
2023-05-23T12:43:17.662Z,9.27
2023-05-23T12:45:45.761Z,9.50
2023-05-23T12:48:13.930Z,9.30
2023-05-23T12:50:41.995Z,9.30
2023-05-23T12:53:10.360Z,9.23
2023-05-23T12:55:38.828Z,10.63
2023-05-23T12:58:08.523Z,10.47
2023-05-23T13:00:36.657Z,10.47
2023-05-23T13:03:06.533Z,10.23
2023-05-23T13:05:34.764Z,10.70
2023-05-23T13:08:03.481Z,9.20
2023-05-23T13:10:32.171Z,10.23
2023-05-23T13:13:00.733Z,8.60
2023-05-23T13:15:30.182Z,10.17
2023-05-23T13:17:58.510Z,9.73
2023-05-23T13:20:30.064Z,9.40
2023-05-23T13:22:58.218Z,10.40
2023-05-23T13:25:27.103Z,9.27
2023-05-23T13:27:55.899Z,11.17
2023-05-23T13:30:24.925Z,10.70
2023-05-23T13:32:54.342Z,9.88
2023-05-23T13:35:22.626Z,10.50
2023-05-23T13:37:50.754Z,9.50
2023-05-23T13:40:21.190Z,9.90
2023-05-23T13:42:50.889Z,9.47
2023-05-23T13:45:19.334Z,10.90
2023-05-23T13:47:47.616Z,11.47
2023-05-23T13:50:17.182Z,9.90
2023-05-23T13:52:48.272Z,11.60
2023-05-23T13:55:18.543Z,11.55
2023-05-23T13:57:46.747Z,10.70
2023-05-23T14:00:16.108Z,10.90
2023-05-23T14:02:44.183Z,10.20
2023-05-23T14:05:12.422Z,9.00
2023-05-23T14:07:42.968Z,8.50
2023-05-23T14:10:11.818Z,9.77
2023-05-23T14:12:39.830Z,8.97
2023-05-23T14:15:10.140Z,7.80
2023-05-23T14:17:38.226Z,7.97
2023-05-23T14:20:07.726Z,9.00
2023-05-23T14:22:35.785Z,9.10
2023-05-23T14:25:05.890Z,8.03
2023-05-23T14:27:34.986Z,7.03
2023-05-23T14:30:03.126Z,9.17
2023-05-23T14:32:33.361Z,7.93
2023-05-23T14:35:01.480Z,7.87
2023-05-23T14:37:29.497Z,8.20
2023-05-23T14:39:57.521Z,9.60
2023-05-23T14:42:27.444Z,8.50
2023-05-23T14:44:55.665Z,9.30
2023-05-23T14:47:23.727Z,8.73
2023-05-23T14:49:51.740Z,8.73
2023-05-23T14:52:20.386Z,10.80
2023-05-23T14:54:48.629Z,8.63
2023-05-23T14:57:16.697Z,11.40
2023-05-23T14:59:46.567Z,9.87
2023-05-23T15:02:14.760Z,11.73
2023-05-23T15:04:42.798Z,11.10
2023-05-23T15:07:10.773Z,11.30
2023-05-23T15:09:38.761Z,11.00
2023-05-23T15:12:09.616Z,10.43
2023-05-23T15:14:37.631Z,11.27
2023-05-23T15:17:08.622Z,13.20
2023-05-23T15:19:37.154Z,11.47
2023-05-23T15:22:06.154Z,10.00
2023-05-23T15:24:35.146Z,9.90
2023-05-23T15:27:19.014Z,10.33
2023-05-23T15:29:47.984Z,10.43
2023-05-23T15:32:17.474Z,11.30
2023-05-23T15:34:45.542Z,10.40
2023-05-23T15:37:13.588Z,12.05
2023-05-23T15:39:41.588Z,10.57
2023-05-23T15:42:09.675Z,8.60
2023-05-23T15:44:37.906Z,9.70
2023-05-23T15:47:06.338Z,9.90
2023-05-23T15:49:36.182Z,10.73
2023-05-23T15:52:04.252Z,11.30
2023-05-23T15:54:32.274Z,10.33
2023-05-23T15:57:00.361Z,10.27
2023-05-23T15:59:28.314Z,10.07
2023-05-23T16:01:56.409Z,9.83
2023-05-23T16:04:24.565Z,8.87
2023-05-23T16:06:54.083Z,10.97
2023-05-23T16:09:22.219Z,9.70
2023-05-23T16:11:50.266Z,9.57
2023-05-23T16:14:18.263Z,9.40
2023-05-23T16:16:46.478Z,10.10
2023-05-23T16:19:14.560Z,10.03
2023-05-23T16:21:42.812Z,9.20
2023-05-23T16:24:12.266Z,10.17
2023-05-23T16:26:40.361Z,10.53
2023-05-23T16:29:08.603Z,10.87
2023-05-23T16:31:36.659Z,9.60
2023-05-23T16:34:04.910Z,10.60
2023-05-23T16:36:33.613Z,10.90
2023-05-23T16:39:01.716Z,11.13
2023-05-23T16:41:31.120Z,10.60
2023-05-23T16:43:59.126Z,12.37
2023-05-23T16:46:27.172Z,12.17
2023-05-23T16:48:55.833Z,11.40
2023-05-23T16:51:23.958Z,12.40
2023-05-23T16:53:51.941Z,14.53
2023-05-23T16:56:19.917Z,11.57
2023-05-23T16:58:49.346Z,11.80
2023-05-23T17:01:19.799Z,11.87
2023-05-23T17:03:50.684Z,11.90
2023-05-23T17:06:18.994Z,12.33
2023-05-23T17:08:47.493Z,11.33
2023-05-23T17:11:15.995Z,11.40
2023-05-23T17:13:44.315Z,11.80
2023-05-23T17:16:19.439Z,12.17
2023-05-23T17:18:48.892Z,12.27
2023-05-23T17:21:16.906Z,10.17
2023-05-23T17:23:45.944Z,11.23
2023-05-23T17:26:14.711Z,12.03
2023-05-23T17:28:42.857Z,12.00
2023-05-23T17:31:11.970Z,11.63
2023-05-23T17:33:41.489Z,11.50
2023-05-23T17:36:09.793Z,10.80
2023-05-23T17:38:38.565Z,11.80
2023-05-23T17:41:06.725Z,11.00
2023-05-23T17:43:34.734Z,12.73
2023-05-23T17:46:02.749Z,11.50
2023-05-23T17:48:45.694Z,12.90
2023-05-23T17:51:17.364Z,12.87
2023-05-23T17:53:45.619Z,13.67
2023-05-23T17:56:13.821Z,13.13
2023-05-23T17:58:44.119Z,12.33
2023-05-23T18:01:13.632Z,13.80
2023-05-23T18:03:42.082Z,12.83
2023-05-23T18:06:10.952Z,13.40
2023-05-23T18:08:41.757Z,14.53
2023-05-23T18:11:09.820Z,13.67
2023-05-23T18:13:37.811Z,14.93
2023-05-23T18:16:06.625Z,13.35
2023-05-23T18:18:34.678Z,14.70
2023-05-23T18:21:02.907Z,15.53
2023-05-23T18:23:31.438Z,13.97
2023-05-23T18:26:00.951Z,14.33
2023-05-23T18:28:29.079Z,8.93
2023-05-23T18:30:57.093Z,9.17
2023-05-23T18:33:25.718Z,5.43
2023-05-23T18:35:54.170Z,5.70
2023-05-23T18:38:22.338Z,5.67
2023-05-23T18:40:50.671Z,7.22
2023-05-23T18:43:21.024Z,9.30
2023-05-23T18:45:49.024Z,9.27
2023-05-23T18:48:17.096Z,10.90
2023-05-23T18:50:45.334Z,11.30
2023-05-23T18:53:13.360Z,12.03
2023-05-23T18:55:41.353Z,11.83
2023-05-23T18:58:09.523Z,11.77
2023-05-23T19:00:38.939Z,13.00
2023-05-23T19:03:07.344Z,13.33
2023-05-23T19:05:36.589Z,12.90
2023-05-23T19:08:04.613Z,11.67
2023-05-23T19:10:32.686Z,12.17
2023-05-23T19:13:00.748Z,12.70
2023-05-23T19:15:28.857Z,12.87
2023-05-23T19:17:58.289Z,12.80
2023-05-23T19:20:26.419Z,12.73
2023-05-23T19:22:54.691Z,13.50
2023-05-23T19:25:23.088Z,14.80
2023-05-23T19:27:51.494Z,13.40
2023-05-23T19:30:19.837Z,14.63
2023-05-23T19:32:47.916Z,13.07
2023-05-23T19:35:17.664Z,13.40
2023-05-23T19:37:45.867Z,13.50
2023-05-23T19:40:14.593Z,14.47
2023-05-23T19:42:42.700Z,12.93
2023-05-23T19:45:11.727Z,15.00
2023-05-23T19:47:39.838Z,13.07
2023-05-23T19:50:10.706Z,12.83
2023-05-23T19:52:40.315Z,13.13
2023-05-23T19:55:09.070Z,13.10
2023-05-23T19:57:37.315Z,13.90
2023-05-23T20:00:06.994Z,13.30
2023-05-23T20:02:35.000Z,13.10
2023-05-23T20:05:03.033Z,12.67
2023-05-23T20:07:31.301Z,12.33
2023-05-23T20:10:00.764Z,12.70
2023-05-23T20:12:28.763Z,12.90
2023-05-23T20:14:57.469Z,12.70
2023-05-23T20:17:25.635Z,12.30
2023-05-23T20:19:53.630Z,13.27
2023-05-23T20:22:21.741Z,12.53
2023-05-23T20:24:49.748Z,12.88
2023-05-23T20:27:19.148Z,12.57
2023-05-23T20:29:47.472Z,11.73
2023-05-23T20:32:15.522Z,12.47
2023-05-23T20:34:43.580Z,13.40
2023-05-23T20:37:13.562Z,12.47
2023-05-23T20:39:42.324Z,12.70
2023-05-23T20:42:10.632Z,12.55
2023-05-23T20:44:40.084Z,14.27
2023-05-23T20:47:10.130Z,12.80
2023-05-23T20:49:40.320Z,14.10
2023-05-23T20:52:08.315Z,13.63
2023-05-23T20:54:36.652Z,14.87
2023-05-23T20:57:05.283Z,13.37
2023-05-23T20:59:33.509Z,14.93
2023-05-23T21:02:02.920Z,15.90
2023-05-23T21:04:31.137Z,17.57
2023-05-23T21:06:59.523Z,16.97
2023-05-23T21:09:27.532Z,13.63
2023-05-23T21:11:57.364Z,14.27
2023-05-23T21:14:25.388Z,12.97
2023-05-23T21:16:53.423Z,15.40
2023-05-23T21:19:22.929Z,15.97
2023-05-23T21:21:53.104Z,18.60
2023-05-23T21:24:21.328Z,18.67
2023-05-23T21:26:49.303Z,13.83
2023-05-23T21:29:17.385Z,14.73
2023-05-23T21:31:45.382Z,14.67
2023-05-23T21:34:23.341Z,14.40
2023-05-23T21:36:54.692Z,14.20
2023-05-23T21:39:22.711Z,13.90
2023-05-23T21:41:51.069Z,14.50
2023-05-23T21:44:19.035Z,14.93
2023-05-23T21:46:47.328Z,15.50
2023-05-23T21:49:15.706Z,15.73
2023-05-23T21:51:44.115Z,16.40
2023-05-23T21:54:15.215Z,15.80
2023-05-23T21:56:43.426Z,15.70
2023-05-23T21:59:11.473Z,15.97
2023-05-23T22:01:40.213Z,14.50
2023-05-23T22:04:08.347Z,11.20
2023-05-23T22:06:36.537Z,13.20
2023-05-23T22:09:05.547Z,12.43
2023-05-23T22:11:34.911Z,11.10
2023-05-23T22:14:03.062Z,9.53
2023-05-23T22:16:32.910Z,10.37
2023-05-23T22:19:02.066Z,10.83
2023-05-23T22:21:30.275Z,10.90
2023-05-23T22:23:58.713Z,9.53
2023-05-23T22:26:26.906Z,10.80
2023-05-23T22:28:56.339Z,9.63
2023-05-23T22:31:24.840Z,9.20
2023-05-23T22:33:53.120Z,9.70
2023-05-23T22:36:21.911Z,10.00
2023-05-23T22:38:50.026Z,10.70
2023-05-23T22:41:18.065Z,9.87
2023-05-23T22:43:46.682Z,11.50
2023-05-23T22:46:16.209Z,10.82
2023-05-23T22:48:44.909Z,9.27
2023-05-23T22:51:14.558Z,8.87
2023-05-23T22:53:43.311Z,9.50
2023-05-23T22:56:11.363Z,7.87
2023-05-23T22:58:39.445Z,9.33
2023-05-23T23:01:07.520Z,9.80
2023-05-23T23:03:36.948Z,9.07
2023-05-23T23:06:06.301Z,9.80
2023-05-23T23:08:34.803Z,9.90
2023-05-23T23:11:03.090Z,8.80
2023-05-23T23:13:31.774Z,7.77
2023-05-23T23:15:59.972Z,7.70
2023-05-23T23:18:28.428Z,7.93
2023-05-23T23:20:57.834Z,8.20
2023-05-23T23:23:25.965Z,7.63
2023-05-23T23:25:54.005Z,8.50
2023-05-23T23:28:22.314Z,9.20
2023-05-23T23:30:50.345Z,7.63
2023-05-23T23:33:18.396Z,6.90
2023-05-23T23:35:48.521Z,8.13
2023-05-23T23:38:18.316Z,9.10
2023-05-23T23:40:46.386Z,7.90
2023-05-23T23:43:14.523Z,7.50
2023-05-23T23:45:42.581Z,7.10
2023-05-23T23:48:10.657Z,7.30
2023-05-23T23:50:39.014Z,7.80
2023-05-23T23:53:08.028Z,8.00
2023-05-23T23:55:37.439Z,8.80
2023-05-23T23:58:05.507Z,7.50
